Time,TemperatureF,DewpointF,PressureIn,WindDirection,WindDirectionDegrees,WindSpeedMPH,WindSpeedGustMPH,Humidity,HourlyPrecipIn,Conditions,Clouds,dailyrainin,SoftwareType,DateUTC
2013-06-05 00:00:00,57.6,47.9,30.09,North,4,0.0,0.0,70,0.00,,,0.00,Wunderground v.1.15,2013-06-05 04:00:00,
2013-06-05 00:05:00,57.4,48.1,30.09,North,4,0.0,1.0,71,0.00,,,0.00,Wunderground v.1.15,2013-06-05 04:05:00,
2013-06-05 00:10:00,57.3,48.0,30.09,North,4,0.0,0.0,71,0.00,,,0.00,Wunderground v.1.15,2013-06-05 04:10:00,
2013-06-05 00:15:00,57.2,47.9,30.09,North,4,0.0,0.0,71,0.00,,,0.00,Wunderground v.1.15,2013-06-05 04:15:00,
2013-06-05 00:20:00,57.0,48.1,30.09,North,4,0.0,0.0,72,0.00,,,0.00,Wunderground v.1.15,2013-06-05 04:20:00,
2013-06-05 00:30:00,56.7,48.1,30.09,NE,43,0.0,0.0,73,0.00,,,0.00,Wunderground v.1.15,2013-06-05 04:30:00,
2013-06-05 00:40:00,56.5,48.7,30.08,NE,44,0.0,0.0,75,0.00,,,0.00,Wunderground v.1.15,2013-06-05 04:40:00,
2013-06-05 00:50:00,56.0,48.5,30.08,NE,43,0.0,0.0,76,0.00,,,0.00,Wunderground v.1.15,2013-06-05 04:50:00,
2013-06-05 01:00:00,55.6,48.5,30.08,NE,43,0.0,0.0,77,0.00,,,0.00,Wunderground v.1.15,2013-06-05 05:00:00,
2013-06-05 01:05:00,55.5,48.4,30.08,NE,43,0.0,0.0,77,0.00,,,0.00,Wunderground v.1.15,2013-06-05 05:05:00,
2013-06-05 01:15:00,55.4,48.3,30.08,NE,43,0.0,0.0,77,0.00,,,0.00,Wunderground v.1.15,2013-06-05 05:15:00,
2013-06-05 01:25:00,55.2,48.5,30.08,NE,43,0.0,0.0,78,0.00,,,0.00,Wunderground v.1.15,2013-06-05 05:25:00,
2013-06-05 01:35:00,55.0,48.3,30.08,NE,43,0.0,1.0,78,0.00,,,0.00,Wunderground v.1.15,2013-06-05 05:35:00,
2013-06-05 01:45:00,54.8,48.1,30.08,NE,43,0.0,0.0,78,0.00,,,0.00,Wunderground v.1.15,2013-06-05 05:45:00,
2013-06-05 01:55:00,54.6,48.2,30.08,NE,43,0.0,0.0,79,0.00,,,0.00,Wunderground v.1.15,2013-06-05 05:55:00,
2013-06-05 02:05:00,54.2,48.2,30.07,NE,43,0.0,0.0,80,0.00,,,0.00,Wunderground v.1.15,2013-06-05 06:05:00,
2013-06-05 02:15:00,54.0,48.3,30.07,NE,43,0.0,0.0,81,0.00,,,0.00,Wunderground v.1.15,2013-06-05 06:15:00,
2013-06-05 02:20:00,53.9,48.5,30.07,NE,43,0.0,0.0,82,0.00,,,0.00,Wunderground v.1.15,2013-06-05 06:20:00,
2013-06-05 02:30:00,53.5,48.1,30.07,NE,43,0.0,0.0,82,0.00,,,0.00,Wunderground v.1.15,2013-06-05 06:30:00,
2013-06-05 02:40:00,53.3,48.3,30.07,NE,43,0.0,0.0,83,0.00,,,0.00,Wunderground v.1.15,2013-06-05 06:40:00,
2013-06-05 02:50:00,53.0,48.0,30.07,NE,43,0.0,0.0,83,0.00,,,0.00,Wunderground v.1.15,2013-06-05 06:50:00,
2013-06-05 02:55:00,52.8,47.8,30.07,NE,43,0.0,0.0,83,0.00,,,0.00,Wunderground v.1.15,2013-06-05 06:55:00,
2013-06-05 03:05:00,52.6,47.9,30.07,NE,43,0.0,0.0,84,0.00,,,0.00,Wunderground v.1.15,2013-06-05 07:05:00,
2013-06-05 03:15:00,52.5,48.1,30.07,NE,43,0.0,0.0,85,0.00,,,0.00,Wunderground v.1.15,2013-06-05 07:15:00,
2013-06-05 03:20:00,52.4,48.0,30.07,NE,43,0.0,0.0,85,0.00,,,0.00,Wunderground v.1.15,2013-06-05 07:20:00,
2013-06-05 03:30:00,52.2,47.8,30.07,NE,43,0.0,0.0,85,0.00,,,0.00,Wunderground v.1.15,2013-06-05 07:30:00,
2013-06-05 03:40:00,51.9,47.5,30.07,NE,43,0.0,0.0,85,0.00,,,0.00,Wunderground v.1.15,2013-06-05 07:40:00,
2013-06-05 03:45:00,51.8,47.7,30.07,NE,44,0.0,0.0,86,0.00,,,0.00,Wunderground v.1.15,2013-06-05 07:45:00,
2013-06-05 03:55:00,51.4,47.4,30.08,NE,44,0.0,0.0,86,0.00,,,0.00,Wunderground v.1.15,2013-06-05 07:55:00,
2013-06-05 04:05:00,51.1,47.1,30.08,NE,43,0.0,0.0,86,0.00,,,0.00,Wunderground v.1.15,2013-06-05 08:05:00,
2013-06-05 04:15:00,51.0,47.3,30.08,NE,44,0.0,0.0,87,0.00,,,0.00,Wunderground v.1.15,2013-06-05 08:15:00,
2013-06-05 04:20:00,50.9,47.2,30.08,NE,43,0.0,0.0,87,0.00,,,0.00,Wunderground v.1.15,2013-06-05 08:20:00,
2013-06-05 04:30:00,50.8,47.1,30.08,NE,43,0.0,0.0,87,0.00,,,0.00,Wunderground v.1.15,2013-06-05 08:30:00,
2013-06-05 04:40:00,50.7,47.3,30.08,NE,44,0.0,0.0,88,0.00,,,0.00,Wunderground v.1.15,2013-06-05 08:40:00,
2013-06-05 04:45:00,50.8,47.1,30.08,NE,43,0.0,0.0,87,0.00,,,0.00,Wunderground v.1.15,2013-06-05 08:45:00,
2013-06-05 04:50:00,50.8,47.4,30.09,NE,43,0.0,0.0,88,0.00,,,0.00,Wunderground v.1.15,2013-06-05 08:50:00,
2013-06-05 05:00:00,50.8,47.4,30.08,NE,43,0.0,0.0,88,0.00,,,0.00,Wunderground v.1.15,2013-06-05 09:00:00,
2013-06-05 05:05:00,50.8,47.4,30.08,NE,43,0.0,0.0,88,0.00,,,0.00,Wunderground v.1.15,2013-06-05 09:05:00,
2013-06-05 05:15:00,50.5,47.1,30.09,NE,43,0.0,0.0,88,0.00,,,0.00,Wunderground v.1.15,2013-06-05 09:15:00,
2013-06-05 05:25:00,50.2,47.1,30.09,NE,43,0.0,0.0,89,0.00,,,0.00,Wunderground v.1.15,2013-06-05 09:25:00,
2013-06-05 05:30:00,50.1,47.0,30.09,NE,43,0.0,0.0,89,0.00,,,0.00,Wunderground v.1.15,2013-06-05 09:30:00,
2013-06-05 05:35:00,50.1,47.0,30.09,NE,43,0.0,0.0,89,0.00,,,0.00,Wunderground v.1.15,2013-06-05 09:35:00,
2013-06-05 05:45:00,50.1,47.3,30.09,NE,43,0.0,0.0,90,0.00,,,0.00,Wunderground v.1.15,2013-06-05 09:45:00,
2013-06-05 05:55:00,50.1,47.0,30.10,NE,43,0.0,0.0,89,0.00,,,0.00,Wunderground v.1.15,2013-06-05 09:55:00,
2013-06-05 06:00:00,50.1,47.3,30.10,NE,43,0.0,0.0,90,0.00,,,0.00,Wunderground v.1.15,2013-06-05 10:00:00,
2013-06-05 06:05:00,50.1,47.3,30.10,NE,43,0.0,0.0,90,0.00,,,0.00,Wunderground v.1.15,2013-06-05 10:05:00,
2013-06-05 06:15:00,50.1,47.6,30.10,NE,43,0.0,0.0,91,0.00,,,0.00,Wunderground v.1.15,2013-06-05 10:15:00,
2013-06-05 06:25:00,50.1,47.3,30.10,NE,44,0.0,0.0,90,0.00,,,0.00,Wunderground v.1.15,2013-06-05 10:25:00,
2013-06-05 06:35:00,50.2,47.7,30.10,NE,44,0.0,0.0,91,0.00,,,0.00,Wunderground v.1.15,2013-06-05 10:35:00,
2013-06-05 06:45:00,50.3,48.1,30.10,NE,43,0.0,0.0,92,0.00,,,0.00,Wunderground v.1.15,2013-06-05 10:45:00,
2013-06-05 06:55:00,50.5,48.0,30.11,NE,43,0.0,0.0,91,0.00,,,0.00,Wunderground v.1.15,2013-06-05 10:55:00,
2013-06-05 07:05:00,50.8,48.6,30.11,NE,44,0.0,0.0,92,0.00,,,0.00,Wunderground v.1.15,2013-06-05 11:05:00,
2013-06-05 07:15:00,51.2,48.7,30.11,NE,44,0.0,0.0,91,0.00,,,0.00,Wunderground v.1.15,2013-06-05 11:15:00,
2013-06-05 07:20:00,51.4,48.9,30.11,NE,44,0.0,0.0,91,0.00,,,0.00,Wunderground v.1.15,2013-06-05 11:20:00,
2013-06-05 07:30:00,51.9,49.4,30.12,NE,43,0.0,0.0,91,0.00,,,0.00,Wunderground v.1.15,2013-06-05 11:30:00,
2013-06-05 07:40:00,52.1,49.3,30.12,NE,43,0.0,0.0,90,0.00,,,0.00,Wunderground v.1.15,2013-06-05 11:40:00,
2013-06-05 07:50:00,52.7,49.8,30.12,NE,43,0.0,0.0,90,0.00,,,0.00,Wunderground v.1.15,2013-06-05 11:50:00,
2013-06-05 08:00:00,53.5,50.3,30.11,NE,43,0.0,0.0,89,0.00,,,0.00,Wunderground v.1.15,2013-06-05 12:00:00,
2013-06-05 08:05:00,53.8,50.3,30.11,ESE,120,0.0,0.0,88,0.00,,,0.00,Wunderground v.1.15,2013-06-05 12:05:00,
2013-06-05 08:15:00,54.3,50.5,30.11,ESE,121,0.0,0.0,87,0.00,,,0.00,Wunderground v.1.15,2013-06-05 12:15:00,
2013-06-05 08:25:00,55.0,51.2,30.11,ESE,106,0.0,0.0,87,0.00,,,0.00,Wunderground v.1.15,2013-06-05 12:25:00,
2013-06-05 08:35:00,55.5,51.1,30.11,ESE,106,0.0,0.0,85,0.00,,,0.00,Wunderground v.1.15,2013-06-05 12:35:00,
2013-06-05 08:45:00,56.2,51.4,30.12,ESE,106,0.0,0.0,84,0.00,,,0.00,Wunderground v.1.15,2013-06-05 12:45:00,
2013-06-05 08:50:00,56.6,51.8,30.12,ESE,106,0.0,0.0,84,0.00,,,0.00,Wunderground v.1.15,2013-06-05 12:50:00,
2013-06-05 09:00:00,57.4,52.6,30.12,ESE,106,0.0,0.0,84,0.00,,,0.00,Wunderground v.1.15,2013-06-05 13:00:00,
2013-06-05 09:05:00,57.8,52.7,30.12,SSW,201,0.0,0.0,83,0.00,,,0.00,Wunderground v.1.15,2013-06-05 13:05:00,
2013-06-05 09:15:00,58.7,51.9,30.11,SE,135,1.0,1.0,78,0.00,,,0.00,Wunderground v.1.15,2013-06-05 13:15:00,
2013-06-05 09:25:00,59.9,52.7,30.11,SSE,168,1.0,1.0,77,0.00,,,0.00,Wunderground v.1.15,2013-06-05 13:25:00,
2013-06-05 09:30:00,60.3,52.0,30.11,SE,125,1.0,1.0,74,0.00,,,0.00,Wunderground v.1.15,2013-06-05 13:30:00,
2013-06-05 09:40:00,60.8,52.5,30.11,ESE,109,1.0,1.0,74,0.00,,,0.00,Wunderground v.1.15,2013-06-05 13:40:00,
2013-06-05 09:50:00,61.6,51.7,30.11,SE,141,1.0,1.0,70,0.00,,,0.00,Wunderground v.1.15,2013-06-05 13:50:00,
2013-06-05 10:00:00,62.1,53.3,30.11,SSE,160,1.0,1.0,73,0.00,,,0.00,Wunderground v.1.15,2013-06-05 14:00:00,
2013-06-05 10:05:00,62.5,52.6,30.10,SSE,156,1.0,1.0,70,0.00,,,0.00,Wunderground v.1.15,2013-06-05 14:05:00,
2013-06-05 10:15:00,63.1,53.2,30.10,East,79,1.0,1.0,70,0.00,,,0.00,Wunderground v.1.15,2013-06-05 14:15:00,
2013-06-05 10:25:00,63.7,53.7,30.09,SE,145,1.0,3.0,70,0.00,,,0.00,Wunderground v.1.15,2013-06-05 14:25:00,
2013-06-05 10:35:00,64.4,54.0,30.09,SSE,164,1.0,3.0,69,0.00,,,0.00,Wunderground v.1.15,2013-06-05 14:35:00,
2013-06-05 10:45:00,64.8,54.0,30.08,NE,38,1.0,1.0,68,0.00,,,0.00,Wunderground v.1.15,2013-06-05 14:45:00,
2013-06-05 10:55:00,65.5,53.8,30.08,SE,139,2.0,2.0,66,0.00,,,0.00,Wunderground v.1.15,2013-06-05 14:55:00,
2013-06-05 11:05:00,66.7,54.6,30.08,NE,47,1.0,1.0,65,0.00,,,0.00,Wunderground v.1.15,2013-06-05 15:05:00,
2013-06-05 11:15:00,67.9,55.3,30.08,SSE,152,2.0,2.0,64,0.00,,,0.00,Wunderground v.1.15,2013-06-05 15:15:00,
2013-06-05 11:25:00,69.3,56.2,30.08,SE,136,2.0,2.0,63,0.00,,,0.00,Wunderground v.1.15,2013-06-05 15:25:00,
2013-06-05 11:35:00,70.2,56.1,30.07,SE,131,1.0,3.0,61,0.00,,,0.00,Wunderground v.1.15,2013-06-05 15:35:00,
2013-06-05 11:45:00,70.4,54.4,30.07,East,94,1.0,3.0,57,0.00,,,0.00,Wunderground v.1.15,2013-06-05 15:45:00,
2013-06-05 11:55:00,71.3,56.7,30.07,SE,133,1.0,3.0,60,0.00,,,0.00,Wunderground v.1.15,2013-06-05 15:55:00,
2013-06-05 12:05:00,72.6,56.0,30.06,East,89,2.0,3.0,56,0.00,,,0.00,Wunderground v.1.15,2013-06-05 16:05:00,
2013-06-05 12:15:00,72.7,58.0,30.06,South,188,2.0,2.0,60,0.00,,,0.00,Wunderground v.1.15,2013-06-05 16:15:00,
2013-06-05 12:20:00,73.3,57.6,30.06,ESE,114,2.0,2.0,58,0.00,,,0.00,Wunderground v.1.15,2013-06-05 16:20:00,
2013-06-05 12:30:00,74.4,57.7,30.06,East,83,2.0,3.0,56,0.00,,,0.00,Wunderground v.1.15,2013-06-05 16:30:00,
2013-06-05 12:40:00,74.2,57.5,30.05,ENE,73,1.0,3.0,56,0.00,,,0.00,Wunderground v.1.15,2013-06-05 16:40:00,
2013-06-05 12:50:00,73.6,57.9,30.05,ESE,112,2.0,4.0,58,0.00,,,0.00,Wunderground v.1.15,2013-06-05 16:50:00,
2013-06-05 13:00:00,73.7,58.5,30.05,East,84,1.0,2.0,59,0.00,,,0.00,Wunderground v.1.15,2013-06-05 17:00:00,
2013-06-05 13:05:00,73.3,57.6,30.05,SSE,149,2.0,2.0,58,0.00,,,0.00,Wunderground v.1.15,2013-06-05 17:05:00,
2013-06-05 13:15:00,73.3,57.6,30.04,East,94,1.0,2.0,58,0.00,,,0.00,Wunderground v.1.15,2013-06-05 17:15:00,
2013-06-05 13:20:00,74.0,57.8,30.03,NNE,32,1.0,2.0,57,0.00,,,0.00,Wunderground v.1.15,2013-06-05 17:20:00,
2013-06-05 13:30:00,75.6,59.3,30.01,ESE,110,2.0,7.0,57,0.00,,,0.00,Wunderground v.1.15,2013-06-05 17:30:00,
2013-06-05 13:40:00,77.1,60.2,30.00,South,179,2.0,2.0,56,0.00,,,0.00,Wunderground v.1.15,2013-06-05 17:40:00,
2013-06-05 13:50:00,78.5,60.5,30.00,NNE,32,2.0,2.0,54,0.00,,,0.00,Wunderground v.1.15,2013-06-05 17:50:00,
2013-06-05 14:00:00,79.5,61.4,30.00,South,174,2.0,8.0,54,0.00,,,0.00,Wunderground v.1.15,2013-06-05 18:00:00,
2013-06-05 14:05:00,80.7,60.9,30.00,NE,45,2.0,8.0,51,0.00,,,0.00,Wunderground v.1.15,2013-06-05 18:05:00,
2013-06-05 14:15:00,80.8,61.0,30.00,ESE,105,2.0,2.0,51,0.00,,,0.00,Wunderground v.1.15,2013-06-05 18:15:00,
2013-06-05 14:25:00,80.0,61.3,30.00,East,86,2.0,3.0,53,0.00,,,0.00,Wunderground v.1.15,2013-06-05 18:25:00,
2013-06-05 14:30:00,80.3,61.6,30.00,South,186,2.0,2.0,53,0.00,,,0.00,Wunderground v.1.15,2013-06-05 18:30:00,
2013-06-05 14:40:00,80.0,60.2,29.99,SW,220,2.0,2.0,51,0.00,,,0.00,Wunderground v.1.15,2013-06-05 18:40:00,
2013-06-05 14:50:00,79.3,61.7,29.99,East,85,1.0,3.0,55,0.00,,,0.00,Wunderground v.1.15,2013-06-05 18:50:00,
2013-06-05 14:55:00,79.3,61.2,29.99,NE,52,2.0,3.0,54,0.00,,,0.00,Wunderground v.1.15,2013-06-05 18:55:00,
2013-06-05 15:05:00,79.6,61.0,29.99,ESE,116,2.0,2.0,53,0.00,,,0.00,Wunderground v.1.15,2013-06-05 19:05:00,
2013-06-05 15:15:00,79.3,61.2,29.99,ESE,112,1.0,2.0,54,0.00,,,0.00,Wunderground v.1.15,2013-06-05 19:15:00,
2013-06-05 15:25:00,79.3,61.2,29.99,ENE,64,1.0,2.0,54,0.00,,,0.00,Wunderground v.1.15,2013-06-05 19:25:00,
2013-06-05 15:30:00,79.6,61.5,29.99,SE,134,2.0,2.0,54,0.00,,,0.00,Wunderground v.1.15,2013-06-05 19:30:00,
2013-06-05 15:40:00,79.6,62.0,29.99,ESE,113,2.0,2.0,55,0.00,,,0.00,Wunderground v.1.15,2013-06-05 19:40:00,
2013-06-05 15:45:00,79.1,61.0,29.99,SE,127,1.0,2.0,54,0.00,,,0.00,Wunderground v.1.15,2013-06-05 19:45:00,
2013-06-05 15:50:00,78.7,61.2,29.99,SSE,163,1.0,1.0,55,0.00,,,0.00,Wunderground v.1.15,2013-06-05 19:50:00,
2013-06-05 16:00:00,77.8,60.8,29.98,NE,39,2.0,2.0,56,0.00,,,0.00,Wunderground v.1.15,2013-06-05 20:00:00,
2013-06-05 16:05:00,77.6,61.2,29.98,ESE,112,2.0,2.0,57,0.00,,,0.00,Wunderground v.1.15,2013-06-05 20:05:00,
2013-06-05 16:15:00,77.0,62.0,29.98,NE,45,0.0,1.0,60,0.00,,,0.00,Wunderground v.1.15,2013-06-05 20:15:00,
2013-06-05 16:25:00,76.6,63.1,29.98,SE,126,1.0,1.0,63,0.00,,,0.00,Wunderground v.1.15,2013-06-05 20:25:00,
2013-06-05 16:30:00,76.8,60.4,29.98,ESE,120,1.0,3.0,57,0.00,,,0.00,Wunderground v.1.15,2013-06-05 20:30:00,
2013-06-05 16:40:00,77.1,60.2,29.98,SSE,162,1.0,1.0,56,0.00,,,0.00,Wunderground v.1.15,2013-06-05 20:40:00,
2013-06-05 16:50:00,77.3,59.9,29.98,East,100,1.0,1.0,55,0.00,,,0.00,Wunderground v.1.15,2013-06-05 20:50:00,
2013-06-05 16:55:00,77.5,60.6,29.98,ESE,122,1.0,1.0,56,0.00,,,0.00,Wunderground v.1.15,2013-06-05 20:55:00,
2013-06-05 17:00:00,77.2,61.8,29.98,SSE,168,1.0,1.0,59,0.00,,,0.00,Wunderground v.1.15,2013-06-05 21:00:00,
2013-06-05 17:05:00,77.2,60.3,29.98,ESE,103,1.0,1.0,56,0.00,,,0.00,Wunderground v.1.15,2013-06-05 21:05:00,
2013-06-05 17:15:00,77.3,60.4,29.98,ENE,73,1.0,2.0,56,0.00,,,0.00,Wunderground v.1.15,2013-06-05 21:15:00,
2013-06-05 17:20:00,76.9,60.5,29.97,ENE,77,0.0,0.0,57,0.00,,,0.00,Wunderground v.1.15,2013-06-05 21:20:00,
2013-06-05 17:25:00,76.6,61.2,29.97,SSE,152,1.0,3.0,59,0.00,,,0.00,Wunderground v.1.15,2013-06-05 21:25:00,
2013-06-05 17:35:00,76.4,60.5,29.97,ENE,59,1.0,2.0,58,0.00,,,0.00,Wunderground v.1.15,2013-06-05 21:35:00,
2013-06-05 17:45:00,76.5,61.6,29.97,SE,127,1.0,2.0,60,0.00,,,0.00,Wunderground v.1.15,2013-06-05 21:45:00,
2013-06-05 17:55:00,76.1,60.7,29.96,East,87,1.0,2.0,59,0.00,,,0.00,Wunderground v.1.15,2013-06-05 21:55:00,
2013-06-05 18:05:00,76.9,60.5,29.96,SSE,159,2.0,2.0,57,0.00,,,0.00,Wunderground v.1.15,2013-06-05 22:05:00,
2013-06-05 18:15:00,77.8,61.3,29.96,South,170,2.0,2.0,57,0.00,,,0.00,Wunderground v.1.15,2013-06-05 22:15:00,
2013-06-05 18:25:00,77.5,60.6,29.95,ESE,112,2.0,2.0,56,0.00,,,0.00,Wunderground v.1.15,2013-06-05 22:25:00,
2013-06-05 18:30:00,77.3,60.4,29.95,SE,131,1.0,1.0,56,0.00,,,0.00,Wunderground v.1.15,2013-06-05 22:30:00,
2013-06-05 18:40:00,76.5,60.1,29.95,SSE,160,1.0,2.0,57,0.00,,,0.00,Wunderground v.1.15,2013-06-05 22:40:00,
2013-06-05 18:50:00,75.6,60.3,29.95,SE,126,1.0,3.0,59,0.00,,,0.00,Wunderground v.1.15,2013-06-05 22:50:00,
2013-06-05 18:55:00,75.3,60.0,29.95,East,89,1.0,3.0,59,0.00,,,0.00,Wunderground v.1.15,2013-06-05 22:55:00,
2013-06-05 19:00:00,75.1,60.3,29.95,ESE,108,1.0,3.0,60,0.00,,,0.00,Wunderground v.1.15,2013-06-05 23:00:00,
2013-06-05 19:05:00,74.9,60.5,29.95,ESE,119,1.0,3.0,61,0.00,,,0.00,Wunderground v.1.15,2013-06-05 23:05:00,
2013-06-05 19:15:00,74.6,60.3,29.95,East,83,0.0,1.0,61,0.00,,,0.00,Wunderground v.1.15,2013-06-05 23:15:00,
2013-06-05 19:20:00,74.4,60.5,29.95,ESE,110,0.0,1.0,62,0.00,,,0.00,Wunderground v.1.15,2013-06-05 23:20:00,
2013-06-05 19:30:00,74.0,60.6,29.94,North,9,1.0,1.0,63,0.00,,,0.00,Wunderground v.1.15,2013-06-05 23:30:00,
2013-06-05 19:40:00,73.7,60.8,29.94,ENE,58,1.0,1.0,64,0.00,,,0.00,Wunderground v.1.15,2013-06-05 23:40:00,
2013-06-05 19:45:00,73.5,60.6,29.94,East,85,0.0,1.0,64,0.00,,,0.00,Wunderground v.1.15,2013-06-05 23:45:00,
2013-06-05 19:55:00,72.8,60.8,29.95,ENE,75,1.0,1.0,66,0.00,,,0.00,Wunderground v.1.15,2013-06-05 23:55:00,
2013-06-05 20:05:00,71.9,60.3,29.94,NE,38,1.0,2.0,67,0.00,,,0.00,Wunderground v.1.15,2013-06-06 00:05:00,
2013-06-05 20:15:00,71.5,60.0,29.94,NE,39,1.0,1.0,67,0.00,,,0.00,Wunderground v.1.15,2013-06-06 00:15:00,
2013-06-05 20:25:00,71.0,60.3,29.95,NE,43,0.0,1.0,69,0.00,,,0.00,Wunderground v.1.15,2013-06-06 00:25:00,
2013-06-05 20:35:00,70.7,60.0,29.95,NE,43,0.0,0.0,69,0.00,,,0.00,Wunderground v.1.15,2013-06-06 00:35:00,
2013-06-05 20:45:00,70.4,60.1,29.95,NE,56,0.0,1.0,70,0.00,,,0.00,Wunderground v.1.15,2013-06-06 00:45:00,
2013-06-05 20:55:00,70.2,60.4,29.95,ESE,119,0.0,0.0,71,0.00,,,0.00,Wunderground v.1.15,2013-06-06 00:55:00,
2013-06-05 21:05:00,70.0,60.2,29.95,ESE,119,0.0,0.0,71,0.00,,,0.00,Wunderground v.1.15,2013-06-06 01:05:00,
2013-06-05 21:15:00,69.9,60.5,29.95,ESE,118,0.0,0.0,72,0.00,,,0.00,Wunderground v.1.15,2013-06-06 01:15:00,
2013-06-05 21:25:00,69.7,60.3,29.95,ESE,118,0.0,0.0,72,0.00,,,0.00,Wunderground v.1.15,2013-06-06 01:25:00,
2013-06-05 21:35:00,69.5,60.1,29.95,ESE,118,0.0,0.0,72,0.00,,,0.00,Wunderground v.1.15,2013-06-06 01:35:00,
2013-06-05 21:40:00,69.4,60.0,29.95,ESE,118,0.0,0.0,72,0.00,,,0.00,Wunderground v.1.15,2013-06-06 01:40:00,
2013-06-05 21:50:00,69.2,60.2,29.96,ESE,118,0.0,0.0,73,0.00,,,0.00,Wunderground v.1.15,2013-06-06 01:50:00,
2013-06-05 22:00:00,69.1,60.1,29.96,ESE,118,0.0,0.0,73,0.00,,,0.00,Wunderground v.1.15,2013-06-06 02:00:00,
2013-06-05 22:05:00,69.0,60.0,29.95,ESE,118,0.0,0.0,73,0.00,,,0.00,Wunderground v.1.15,2013-06-06 02:05:00,
2013-06-05 22:15:00,68.9,59.9,29.96,ESE,118,0.0,0.0,73,0.00,,,0.00,Wunderground v.1.15,2013-06-06 02:15:00,
2013-06-05 22:25:00,68.8,60.2,29.96,ESE,118,0.0,0.0,74,0.00,,,0.00,Wunderground v.1.15,2013-06-06 02:25:00,
2013-06-05 22:35:00,68.5,59.9,29.96,ESE,118,0.0,0.0,74,0.00,,,0.00,Wunderground v.1.15,2013-06-06 02:35:00,
2013-06-05 22:45:00,68.3,60.1,29.96,NE,34,1.0,1.0,75,0.00,,,0.00,Wunderground v.1.15,2013-06-06 02:45:00,
2013-06-05 22:50:00,68.3,60.1,29.96,NE,34,1.0,1.0,75,0.00,,,0.00,Wunderground v.1.15,2013-06-06 02:50:00,
2013-06-05 23:00:00,68.1,59.9,29.96,NNE,16,0.0,0.0,75,0.00,,,0.00,Wunderground v.1.15,2013-06-06 03:00:00,
2013-06-05 23:05:00,68.1,59.9,29.95,NNE,29,1.0,1.0,75,0.00,,,0.00,Wunderground v.1.15,2013-06-06 03:05:00,
2013-06-05 23:15:00,68.1,59.9,29.95,NNE,29,1.0,1.0,75,0.00,,,0.00,Wunderground v.1.15,2013-06-06 03:15:00,
2013-06-05 23:25:00,68.3,60.1,29.95,NE,41,1.0,2.0,75,0.00,,,0.00,Wunderground v.1.15,2013-06-06 03:25:00,
2013-06-05 23:30:00,68.3,60.1,29.95,ESE,108,1.0,1.0,75,0.00,,,0.00,Wunderground v.1.15,2013-06-06 03:30:00,
2013-06-05 23:40:00,68.2,60.0,29.95,NE,38,0.0,0.0,75,0.00,,,0.00,Wunderground v.1.15,2013-06-06 03:40:00,
2013-06-05 23:50:00,68.2,60.0,29.96,NE,38,1.0,1.0,75,0.00,,,0.00,Wunderground v.1.15,2013-06-06 03:50:00,